Terminal Aerodrome Forecast
Issued by NWS

Home | Current Version | Previous Version | Text Only | Print | Product List | Glossary On
Versions: 1 2 3 4 5 6 7 8 9 10 11 12 13 14 15 16 17 18 19 20 21
000
FTAK31 PAJN 171814 CCB
TAFAJN
TAF COR
PAJN 171814Z 1718/1818 09006KT P6SM -SHRA BKN030 OVC040
     FM172100 11015KT P6SM -SHRA OVC035
     FM180300 11012KT P6SM -RA OVC035
     FM181400 10015G20KT 6SM -RA BR OVC050
     FM181600 11015G20KT 2SM -RA BR OVC050=

USA.gov is the U.S. government's official web portal to all federal, state and local government web resources and services.